createdAt,value
2016-11-27T00:00:00.692Z,85.76
2016-11-27T00:00:27.197Z,85.45
2016-11-27T00:00:48.928Z,85.22
2016-11-27T00:01:16.436Z,84.98
2016-11-27T00:01:38.170Z,84.78
2016-11-27T00:01:59.895Z,84.70
2016-11-27T00:02:22.609Z,84.72
2016-11-27T00:02:49.108Z,84.82
2016-11-27T00:03:10.855Z,84.94
2016-11-27T00:03:32.592Z,85.04
2016-11-27T00:03:54.324Z,85.19
2016-11-27T00:04:16.068Z,85.26
2016-11-27T00:04:41.738Z,85.25
2016-11-27T00:05:03.357Z,85.32
2016-11-27T00:05:25.093Z,85.41
2016-11-27T00:05:46.842Z,85.55
2016-11-27T00:06:35.126Z,85.56
2016-11-27T00:06:56.853Z,85.68
2016-11-27T00:07:18.598Z,85.75
2016-11-27T00:07:40.325Z,85.73
2016-11-27T00:08:02.048Z,85.66
2016-11-27T00:08:23.780Z,85.74
2016-11-27T00:08:45.504Z,85.76
2016-11-27T00:09:07.236Z,85.65
2016-11-27T00:09:29.094Z,85.44
2016-11-27T00:09:50.813Z,85.38
2016-11-27T00:10:12.550Z,85.58
2016-11-27T00:10:39.050Z,85.57
2016-11-27T00:11:00.781Z,85.56
2016-11-27T00:11:22.525Z,85.52
2016-11-27T00:11:44.299Z,85.40
2016-11-27T00:12:06.032Z,85.46
2016-11-27T00:12:27.781Z,85.47
2016-11-27T00:12:50.505Z,85.40
2016-11-27T00:13:12.231Z,85.40
2016-11-27T00:13:33.964Z,85.34
2016-11-27T00:14:00.471Z,85.41
2016-11-27T00:14:22.194Z,85.53
2016-11-27T00:14:43.939Z,85.61
2016-11-27T00:15:05.660Z,85.75
2016-11-27T00:15:27.388Z,85.89
2016-11-27T00:15:50.112Z,85.95
2016-11-27T00:16:11.846Z,85.83
2016-11-27T00:16:33.577Z,85.85
2016-11-27T00:16:55.326Z,85.79
2016-11-27T00:17:17.066Z,85.68
2016-11-27T00:17:39.803Z,85.85
2016-11-27T00:18:01.523Z,85.72
2016-11-27T00:18:23.246Z,85.56
2016-11-27T00:18:49.740Z,85.59
2016-11-27T00:19:11.462Z,85.71
2016-11-27T00:19:33.192Z,85.71
2016-11-27T00:19:59.687Z,85.90
2016-11-27T00:20:21.434Z,85.88
2016-11-27T00:21:11.665Z,85.74
2016-11-27T00:21:33.422Z,85.75
2016-11-27T00:21:55.146Z,85.93
2016-11-27T00:22:16.893Z,85.79
2016-11-27T00:22:38.684Z,85.67
2016-11-27T00:23:00.418Z,85.66
2016-11-27T00:23:22.157Z,85.49
2016-11-27T00:23:43.902Z,85.59
2016-11-27T00:24:05.635Z,85.60
2016-11-27T00:24:54.864Z,85.84
2016-11-27T00:25:16.650Z,85.93
2016-11-27T00:25:38.385Z,85.71
2016-11-27T00:26:00.120Z,85.60
2016-11-27T00:26:21.844Z,85.49
2016-11-27T00:26:43.571Z,85.33
2016-11-27T00:27:05.324Z,85.35
2016-11-27T00:27:27.064Z,85.15
2016-11-27T00:27:54.687Z,85.15
2016-11-27T00:28:16.415Z,85.25
2016-11-27T00:28:39.156Z,85.28
2016-11-27T00:29:00.870Z,85.39
2016-11-27T00:29:22.592Z,85.44
2016-11-27T00:29:44.351Z,85.38
2016-11-27T00:30:06.101Z,85.42
2016-11-27T00:30:54.348Z,85.67
2016-11-27T00:31:16.088Z,85.82
2016-11-27T00:31:37.816Z,85.86
2016-11-27T00:31:59.627Z,85.83
2016-11-27T00:32:21.355Z,85.88
2016-11-27T00:32:43.100Z,85.68
2016-11-27T00:33:04.820Z,85.53
2016-11-27T00:33:27.545Z,85.33
2016-11-27T00:33:50.841Z,85.36
2016-11-27T00:34:12.562Z,85.27
2016-11-27T00:34:34.304Z,85.23
2016-11-27T00:34:57.045Z,85.38
2016-11-27T00:35:18.786Z,85.39
2016-11-27T00:35:40.512Z,85.44
2016-11-27T00:36:02.245Z,85.35
2016-11-27T00:36:50.482Z,85.08
2016-11-27T00:37:12.212Z,84.99
2016-11-27T00:37:33.945Z,85.00
2016-11-27T00:37:55.686Z,85.04
2016-11-27T00:38:43.913Z,85.09
2016-11-27T00:39:05.645Z,85.15
2016-11-27T00:39:27.387Z,85.20
2016-11-27T00:39:49.132Z,85.32
2016-11-27T00:40:11.875Z,85.47
2016-11-27T00:40:33.599Z,85.58
2016-11-27T00:40:55.339Z,85.57
2016-11-27T00:41:21.876Z,85.73
2016-11-27T00:41:43.597Z,85.81
2016-11-27T00:42:05.325Z,86.08
2016-11-27T00:42:27.069Z,86.08
2016-11-27T00:42:48.804Z,85.94
2016-11-27T00:43:10.681Z,85.75
2016-11-27T00:43:33.307Z,85.70
2016-11-27T00:43:55.085Z,85.65
2016-11-27T00:44:16.800Z,85.63
2016-11-27T00:44:38.530Z,85.51
2016-11-27T00:45:01.421Z,85.58
2016-11-27T00:45:23.237Z,85.74
2016-11-27T00:45:44.958Z,85.90
2016-11-27T00:46:06.704Z,85.93
2016-11-27T00:46:29.449Z,86.00
2016-11-27T00:46:55.955Z,85.93
2016-11-27T00:47:17.701Z,86.15
2016-11-27T00:47:39.449Z,86.21
2016-11-27T00:48:01.191Z,86.15
2016-11-27T00:48:22.917Z,86.33
2016-11-27T00:48:49.435Z,86.42
2016-11-27T00:49:11.164Z,86.30
2016-11-27T00:49:32.912Z,86.27
2016-11-27T00:49:54.648Z,86.14
2016-11-27T00:50:16.373Z,86.06
2016-11-27T00:50:38.101Z,85.93
2016-11-27T00:50:59.838Z,85.87
2016-11-27T00:51:21.571Z,85.76
2016-11-27T00:51:43.309Z,85.64
2016-11-27T00:52:05.026Z,85.65
2016-11-27T00:52:26.793Z,85.51
2016-11-27T00:52:48.525Z,85.39
2016-11-27T00:53:12.261Z,85.22
2016-11-27T00:53:33.987Z,85.28
2016-11-27T00:54:01.503Z,85.35
2016-11-27T00:54:28.996Z,85.60
2016-11-27T00:54:58.350Z,85.59
2016-11-27T00:55:20.077Z,85.62
2016-11-27T00:55:45.446Z,85.62
2016-11-27T00:56:14.848Z,85.64
2016-11-27T00:56:36.569Z,85.72
2016-11-27T00:57:03.061Z,85.70
2016-11-27T00:57:29.558Z,85.64
2016-11-27T00:57:56.047Z,85.63
2016-11-27T00:58:55.825Z,85.48
2016-11-27T00:59:17.573Z,85.42
2016-11-27T00:59:48.839Z,85.41
2016-11-27T01:00:10.560Z,85.36
2016-11-27T01:00:37.059Z,85.36
2016-11-27T01:00:58.796Z,85.33
2016-11-27T01:01:20.535Z,85.33
2016-11-27T01:01:44.878Z,85.25
2016-11-27T01:02:07.607Z,85.22
2016-11-27T01:02:29.338Z,85.15
2016-11-27T01:02:51.066Z,85.12
2016-11-27T01:03:12.964Z,85.20
2016-11-27T01:03:39.487Z,85.30
2016-11-27T01:04:01.209Z,85.36
2016-11-27T01:04:22.937Z,85.44
2016-11-27T01:04:44.679Z,85.41
2016-11-27T01:05:06.405Z,85.37
2016-11-27T01:05:32.904Z,85.38
2016-11-27T01:06:28.922Z,85.29
2016-11-27T01:06:51.653Z,85.23
2016-11-27T01:07:18.149Z,85.18
2016-11-27T01:07:40.908Z,85.19
2016-11-27T01:08:08.405Z,85.36
2016-11-27T01:08:34.935Z,85.41
2016-11-27T01:08:56.658Z,85.61
2016-11-27T01:09:18.395Z,85.74
2016-11-27T01:09:40.192Z,86.02
2016-11-27T01:10:01.952Z,86.02
2016-11-27T01:10:23.698Z,86.03
2016-11-27T01:10:45.430Z,85.99
2016-11-27T01:11:07.166Z,85.93
2016-11-27T01:11:29.901Z,85.91
2016-11-27T01:11:51.631Z,85.97
2016-11-27T01:12:13.367Z,85.90
2016-11-27T01:12:35.100Z,85.77
2016-11-27T01:12:56.841Z,85.76
2016-11-27T01:13:18.573Z,85.96
2016-11-27T01:13:40.293Z,86.09
2016-11-27T01:14:02.035Z,86.11
2016-11-27T01:15:16.758Z,85.88
2016-11-27T01:15:38.500Z,85.82
2016-11-27T01:16:00.242Z,85.83
2016-11-27T01:16:22.000Z,85.79
2016-11-27T01:16:43.742Z,85.89
2016-11-27T01:17:05.466Z,85.93
2016-11-27T01:17:27.208Z,85.80
2016-11-27T01:18:15.434Z,85.86
2016-11-27T01:18:38.159Z,85.88
2016-11-27T01:18:59.887Z,85.89
2016-11-27T01:19:21.629Z,85.95
2016-11-27T01:20:42.382Z,85.91
2016-11-27T01:21:14.362Z,85.79
2016-11-27T01:21:36.087Z,85.81
2016-11-27T01:22:24.323Z,85.96
2016-11-27T01:22:46.068Z,86.08
2016-11-27T01:23:07.795Z,86.13
2016-11-27T01:23:29.531Z,86.07
2016-11-27T01:23:51.272Z,85.99
2016-11-27T01:24:13.009Z,85.79
2016-11-27T01:24:34.746Z,85.82
2016-11-27T01:24:56.469Z,85.87
2016-11-27T01:25:18.202Z,85.77
2016-11-27T01:25:39.930Z,85.84
2016-11-27T01:26:01.653Z,85.91
2016-11-27T01:26:24.376Z,85.93
2016-11-27T01:26:46.103Z,85.94
2016-11-27T01:27:07.823Z,86.08
2016-11-27T01:27:29.551Z,86.01
2016-11-27T01:27:51.283Z,85.98
2016-11-27T01:28:17.783Z,86.05
2016-11-27T01:28:44.285Z,86.10
2016-11-27T01:29:06.019Z,86.01
2016-11-27T01:29:30.362Z,86.00
2016-11-27T01:29:56.857Z,85.91
2016-11-27T01:30:18.595Z,85.92
2016-11-27T01:30:40.334Z,85.95
2016-11-27T01:31:02.064Z,85.88
2016-11-27T01:31:23.797Z,85.84
2016-11-27T01:31:45.549Z,85.97
2016-11-27T01:32:07.285Z,86.12
2016-11-27T01:32:30.054Z,86.04
2016-11-27T01:32:51.779Z,86.17
2016-11-27T01:33:14.497Z,86.23
2016-11-27T01:33:36.220Z,86.20
2016-11-27T01:34:24.490Z,86.27
2016-11-27T01:34:46.216Z,86.27
2016-11-27T01:35:07.940Z,86.30
2016-11-27T01:35:29.664Z,86.30
2016-11-27T01:35:52.396Z,86.26
2016-11-27T01:36:14.143Z,86.02
2016-11-27T01:36:35.851Z,85.83
2016-11-27T01:36:57.595Z,85.71
2016-11-27T01:37:19.328Z,85.74
2016-11-27T01:37:46.833Z,85.65
2016-11-27T01:38:08.575Z,85.73
2016-11-27T01:38:30.306Z,85.98
2016-11-27T01:38:54.683Z,86.18
2016-11-27T01:39:16.414Z,86.16
2016-11-27T01:39:38.137Z,86.17
2016-11-27T01:40:04.626Z,86.32
2016-11-27T01:40:26.366Z,86.36
2016-11-27T01:40:48.089Z,86.16
2016-11-27T01:41:11.804Z,86.07
2016-11-27T01:41:33.575Z,86.19
2016-11-27T01:41:55.307Z,86.05
2016-11-27T01:42:18.035Z,85.85
2016-11-27T01:42:39.774Z,85.76
2016-11-27T01:43:28.007Z,85.58
2016-11-27T01:43:50.744Z,85.46
2016-11-27T01:44:12.472Z,85.39
2016-11-27T01:44:35.193Z,85.29
2016-11-27T01:44:56.929Z,85.35
2016-11-27T01:45:23.552Z,85.61
2016-11-27T01:45:46.217Z,85.72
2016-11-27T01:46:07.957Z,85.83
2016-11-27T01:46:30.706Z,86.07
2016-11-27T01:46:52.444Z,86.28
2016-11-27T01:47:14.199Z,86.31
2016-11-27T01:47:35.920Z,86.23
2016-11-27T01:47:57.641Z,86.22
2016-11-27T01:48:19.374Z,86.16
2016-11-27T01:48:41.114Z,86.06
2016-11-27T01:49:02.846Z,86.13
2016-11-27T01:49:29.345Z,86.07
2016-11-27T01:49:51.076Z,85.82
2016-11-27T01:50:12.800Z,85.72
2016-11-27T01:50:34.569Z,85.83
2016-11-27T01:50:56.307Z,85.96
2016-11-27T01:51:18.057Z,85.84
2016-11-27T01:51:39.789Z,85.89
2016-11-27T01:52:01.534Z,86.01
2016-11-27T01:52:24.266Z,86.07
2016-11-27T01:52:46.001Z,86.20
2016-11-27T01:53:12.496Z,86.15
2016-11-27T01:53:38.998Z,86.08
2016-11-27T01:54:28.273Z,86.08
2016-11-27T01:54:50.005Z,86.18
2016-11-27T01:55:11.736Z,86.35
2016-11-27T01:55:33.473Z,86.32
2016-11-27T01:55:55.191Z,86.23
2016-11-27T01:56:17.930Z,86.22
2016-11-27T01:56:39.686Z,86.27
2016-11-27T01:57:01.419Z,86.57
2016-11-27T01:57:23.149Z,86.64
2016-11-27T01:57:44.880Z,86.71
2016-11-27T01:58:06.613Z,86.73
2016-11-27T01:58:28.377Z,86.66
2016-11-27T01:58:52.101Z,86.51
2016-11-27T01:59:13.845Z,86.32
2016-11-27T01:59:35.595Z,86.16
2016-11-27T01:59:57.323Z,86.04
2016-11-27T02:00:19.067Z,85.98
2016-11-27T02:00:40.802Z,86.03
2016-11-27T02:01:02.541Z,86.28
2016-11-27T02:01:24.268Z,86.33
2016-11-27T02:01:46.012Z,86.11
2016-11-27T02:02:07.733Z,85.91
2016-11-27T02:02:30.462Z,85.92
2016-11-27T02:02:52.207Z,85.79
2016-11-27T02:03:13.940Z,85.70
2016-11-27T02:03:35.668Z,85.64
2016-11-27T02:03:57.408Z,85.51
2016-11-27T02:04:19.135Z,85.41
2016-11-27T02:04:40.880Z,85.47
2016-11-27T02:05:07.378Z,85.71
2016-11-27T02:05:29.129Z,86.04
2016-11-27T02:05:50.869Z,86.11
2016-11-27T02:06:12.598Z,86.17
2016-11-27T02:06:34.314Z,86.19
2016-11-27T02:06:56.060Z,86.23
2016-11-27T02:07:17.802Z,86.15
2016-11-27T02:07:39.543Z,86.01
2016-11-27T02:08:01.290Z,85.85
2016-11-27T02:08:23.024Z,85.91
2016-11-27T02:08:44.751Z,86.10
2016-11-27T02:09:06.510Z,86.04
2016-11-27T02:09:28.252Z,85.97
2016-11-27T02:09:49.985Z,86.11
2016-11-27T02:10:16.477Z,86.08
2016-11-27T02:10:38.199Z,86.18
2016-11-27T02:10:59.929Z,86.09
2016-11-27T02:11:21.671Z,86.00
2016-11-27T02:11:43.407Z,85.95
2016-11-27T02:12:05.224Z,86.11
2016-11-27T02:12:26.980Z,86.04
2016-11-27T02:12:48.702Z,85.82
2016-11-27T02:13:11.423Z,85.87
2016-11-27T02:13:33.155Z,85.84
2016-11-27T02:13:54.882Z,85.76
2016-11-27T02:14:21.377Z,85.91
2016-11-27T02:14:43.125Z,86.04
2016-11-27T02:15:04.866Z,85.82
2016-11-27T02:15:27.588Z,85.84
2016-11-27T02:15:49.308Z,85.74
2016-11-27T02:16:11.046Z,85.82
2016-11-27T02:16:32.776Z,85.77
2016-11-27T02:16:54.543Z,85.85
2016-11-27T02:17:16.302Z,85.78
2016-11-27T02:17:38.025Z,85.67
2016-11-27T02:17:59.754Z,85.55
2016-11-27T02:18:21.482Z,85.52
2016-11-27T02:18:47.983Z,85.54
2016-11-27T02:19:09.714Z,85.51
2016-11-27T02:19:38.907Z,85.39
2016-11-27T02:20:00.653Z,85.49
2016-11-27T02:20:22.381Z,85.51
2016-11-27T02:20:45.128Z,85.52
2016-11-27T02:21:07.869Z,85.45
2016-11-27T02:21:29.593Z,85.59
2016-11-27T02:21:52.317Z,85.69
2016-11-27T02:22:24.270Z,85.89
2016-11-27T02:22:50.764Z,86.13
2016-11-27T02:23:17.263Z,86.24
2016-11-27T02:23:39.001Z,86.31
2016-11-27T02:24:00.732Z,86.30
2016-11-27T02:24:22.468Z,86.30
2016-11-27T02:24:44.211Z,86.32
2016-11-27T02:25:05.938Z,86.20
2016-11-27T02:25:27.661Z,86.31
2016-11-27T02:25:49.474Z,86.25
2016-11-27T02:26:11.201Z,86.12
2016-11-27T02:26:32.931Z,86.02
2016-11-27T02:26:54.656Z,86.14
2016-11-27T02:27:16.389Z,86.35
2016-11-27T02:27:39.122Z,86.57
2016-11-27T02:28:27.347Z,86.66
2016-11-27T02:28:49.060Z,86.55
2016-11-27T02:29:10.783Z,86.41
2016-11-27T02:29:59.013Z,86.26
2016-11-27T02:30:20.744Z,86.31
2016-11-27T02:30:42.468Z,86.25
2016-11-27T02:31:04.210Z,86.31
2016-11-27T02:31:25.950Z,86.39
2016-11-27T02:31:47.681Z,86.37
2016-11-27T02:32:09.415Z,86.38
2016-11-27T02:32:35.908Z,86.26
2016-11-27T02:32:57.630Z,86.13
2016-11-27T02:33:19.364Z,85.99
2016-11-27T02:33:42.091Z,85.97
2016-11-27T02:34:03.816Z,86.06
2016-11-27T02:34:25.540Z,86.28
2016-11-27T02:34:47.271Z,86.56
2016-11-27T02:35:13.766Z,86.36
2016-11-27T02:35:35.493Z,86.33
2016-11-27T02:35:58.277Z,86.30
2016-11-27T02:36:19.975Z,86.45
2016-11-27T02:36:41.707Z,86.52
2016-11-27T02:37:03.527Z,86.74
2016-11-27T02:37:26.255Z,86.82
2016-11-27T02:37:48.011Z,86.83
2016-11-27T02:38:09.736Z,86.89
2016-11-27T02:38:31.482Z,86.70
2016-11-27T02:38:53.212Z,86.70
2016-11-27T02:39:14.947Z,86.66
2016-11-27T02:39:36.679Z,86.68
2016-11-27T02:39:58.433Z,86.75
2016-11-27T02:40:20.172Z,86.73
2016-11-27T02:40:41.892Z,86.51
2016-11-27T02:41:03.623Z,86.50
2016-11-27T02:41:25.357Z,86.47
2016-11-27T02:41:47.099Z,86.50
2016-11-27T02:42:13.591Z,86.54
2016-11-27T02:42:35.323Z,86.35
2016-11-27T02:42:57.054Z,86.26
2016-11-27T02:43:18.787Z,86.24
2016-11-27T02:43:40.528Z,86.40
2016-11-27T02:44:02.283Z,86.33
2016-11-27T02:44:24.002Z,86.53
2016-11-27T02:44:45.742Z,86.59
2016-11-27T02:45:07.463Z,86.57
2016-11-27T02:45:29.194Z,86.63
2016-11-27T02:45:50.926Z,86.70
2016-11-27T02:46:12.652Z,86.78
2016-11-27T02:46:34.421Z,86.81
2016-11-27T02:46:56.166Z,86.87
2016-11-27T02:47:17.897Z,86.90
2016-11-27T02:47:39.630Z,86.80
2016-11-27T02:48:01.351Z,86.80
2016-11-27T02:48:23.068Z,86.95
2016-11-27T02:48:44.785Z,86.87
2016-11-27T02:49:06.528Z,87.07
2016-11-27T02:49:28.253Z,87.19
2016-11-27T02:49:49.982Z,87.16
2016-11-27T02:50:11.710Z,87.21
2016-11-27T02:50:33.432Z,87.16
2016-11-27T02:50:55.165Z,87.15
2016-11-27T02:51:16.906Z,87.06
2016-11-27T02:51:38.662Z,87.04
2016-11-27T02:52:05.154Z,87.13
2016-11-27T02:52:26.895Z,86.94
2016-11-27T02:52:48.644Z,86.85
2016-11-27T02:53:10.405Z,86.67
2016-11-27T02:53:32.137Z,86.55
2016-11-27T02:53:53.874Z,86.54
2016-11-27T02:54:15.595Z,86.58
2016-11-27T02:54:37.335Z,86.73
2016-11-27T02:54:59.060Z,86.87
2016-11-27T02:55:20.801Z,87.02
2016-11-27T02:55:42.545Z,87.16
2016-11-27T02:56:31.744Z,87.33
2016-11-27T02:56:53.473Z,87.38
2016-11-27T02:57:15.198Z,87.32
2016-11-27T02:57:36.943Z,87.12
2016-11-27T02:57:58.665Z,87.08
2016-11-27T02:58:20.395Z,86.95
2016-11-27T02:58:42.130Z,87.07
2016-11-27T02:59:03.969Z,87.22
2016-11-27T02:59:25.703Z,87.35
2016-11-27T02:59:47.433Z,87.26
2016-11-27T03:00:09.152Z,87.13
2016-11-27T03:00:30.919Z,87.08
2016-11-27T03:00:52.646Z,87.07
2016-11-27T03:01:14.370Z,87.13
2016-11-27T03:01:36.105Z,87.10
2016-11-27T03:01:57.835Z,86.94
2016-11-27T03:02:19.574Z,87.11
2016-11-27T03:02:41.310Z,87.35
2016-11-27T03:03:03.051Z,87.43
2016-11-27T03:03:25.785Z,87.50
2016-11-27T03:03:47.527Z,87.58
2016-11-27T03:04:09.276Z,87.58
2016-11-27T03:04:31.028Z,87.63
2016-11-27T03:04:52.768Z,87.78
2016-11-27T03:05:14.496Z,87.84
2016-11-27T03:05:36.238Z,87.85
2016-11-27T03:05:57.969Z,87.97
2016-11-27T03:06:19.696Z,88.02
2016-11-27T03:06:41.413Z,88.12
2016-11-27T03:07:03.143Z,88.13
2016-11-27T03:07:24.873Z,88.24
2016-11-27T03:07:46.596Z,88.34
2016-11-27T03:08:08.323Z,88.30
2016-11-27T03:08:30.057Z,88.20
2016-11-27T03:08:51.789Z,88.15
2016-11-27T03:09:13.529Z,88.21
2016-11-27T03:09:35.252Z,87.98
2016-11-27T03:09:56.973Z,87.94
2016-11-27T03:10:23.462Z,87.99
2016-11-27T03:10:45.209Z,87.79
2016-11-27T03:11:06.939Z,87.61
2016-11-27T03:11:33.432Z,87.39
2016-11-27T03:11:55.160Z,87.45
2016-11-27T03:12:17.000Z,87.63
2016-11-27T03:12:38.729Z,87.75
2016-11-27T03:13:00.471Z,87.84
2016-11-27T03:13:22.207Z,87.80
2016-11-27T03:13:43.933Z,87.96
2016-11-27T03:14:05.672Z,88.13
2016-11-27T03:14:27.409Z,88.25
2016-11-27T03:14:58.670Z,88.30
2016-11-27T03:15:20.421Z,88.36
2016-11-27T03:15:42.154Z,88.22
2016-11-27T03:16:03.893Z,88.05
2016-11-27T03:16:26.676Z,87.78
2016-11-27T03:16:49.399Z,87.62
2016-11-27T03:17:11.126Z,87.53
2016-11-27T03:17:33.852Z,87.54
2016-11-27T03:17:55.582Z,87.57
2016-11-27T03:18:17.321Z,87.72
2016-11-27T03:18:43.823Z,87.80
2016-11-27T03:19:05.558Z,87.79
2016-11-27T03:19:32.061Z,87.95
2016-11-27T03:19:53.799Z,87.93
2016-11-27T03:20:46.787Z,88.14
2016-11-27T03:21:08.528Z,88.11
2016-11-27T03:21:30.258Z,88.06
2016-11-27T03:21:52.003Z,88.15
2016-11-27T03:22:18.494Z,88.07
2016-11-27T03:22:41.222Z,88.04
2016-11-27T03:23:02.963Z,88.08
2016-11-27T03:23:24.707Z,88.09
2016-11-27T03:23:47.435Z,88.19
2016-11-27T03:24:09.182Z,88.17
2016-11-27T03:24:30.900Z,88.21
2016-11-27T03:24:52.638Z,88.36
2016-11-27T03:25:14.390Z,88.51
2016-11-27T03:25:36.107Z,88.60
2016-11-27T03:25:58.842Z,88.61
2016-11-27T03:26:20.576Z,88.59
2016-11-27T03:26:42.308Z,88.56
2016-11-27T03:27:04.054Z,88.63
2016-11-27T03:27:25.779Z,88.58
2016-11-27T03:27:47.502Z,88.63
2016-11-27T03:28:10.237Z,88.67
2016-11-27T03:28:31.954Z,88.70
2016-11-27T03:28:53.685Z,88.69
2016-11-27T03:29:15.425Z,88.66
2016-11-27T03:29:37.163Z,88.66
2016-11-27T03:29:58.876Z,88.57
2016-11-27T03:30:21.603Z,88.62
2016-11-27T03:30:43.338Z,88.59
2016-11-27T03:31:31.570Z,88.44
2016-11-27T03:31:53.310Z,88.25
2016-11-27T03:32:15.035Z,88.08
2016-11-27T03:32:36.769Z,88.18
2016-11-27T03:32:58.497Z,88.26
2016-11-27T03:33:20.227Z,88.19
2016-11-27T03:33:41.952Z,88.04
2016-11-27T03:34:03.683Z,87.79
2016-11-27T03:34:25.425Z,87.72
2016-11-27T03:34:47.171Z,87.63
2016-11-27T03:35:08.895Z,87.69
2016-11-27T03:35:30.626Z,87.62
2016-11-27T03:35:52.353Z,87.69
2016-11-27T03:36:18.847Z,87.64
2016-11-27T03:36:40.578Z,87.73
2016-11-27T03:37:02.315Z,87.78
2016-11-27T03:37:24.053Z,87.73
2016-11-27T03:37:50.139Z,87.55
2016-11-27T03:38:12.377Z,87.65
2016-11-27T03:38:34.106Z,87.93
2016-11-27T03:38:55.833Z,88.17
2016-11-27T03:39:17.604Z,88.25
2016-11-27T03:39:39.327Z,88.42
2016-11-27T03:40:05.853Z,88.54
2016-11-27T03:40:27.673Z,88.54
2016-11-27T03:40:49.406Z,88.54
2016-11-27T03:41:11.133Z,88.62
2016-11-27T03:41:32.861Z,88.61
2016-11-27T03:41:59.360Z,88.39
2016-11-27T03:42:21.090Z,88.12
2016-11-27T03:42:42.813Z,88.09
2016-11-27T03:43:04.546Z,88.07
2016-11-27T03:43:26.283Z,88.07
2016-11-27T03:43:48.037Z,88.00
2016-11-27T03:44:09.762Z,88.25
2016-11-27T03:45:03.913Z,88.37
2016-11-27T03:45:43.824Z,88.10
2016-11-27T03:46:14.038Z,88.03
2016-11-27T03:46:35.796Z,88.24
2016-11-27T03:46:57.511Z,88.53
2016-11-27T03:47:19.230Z,88.71
2016-11-27T03:47:41.159Z,88.56
2016-11-27T03:48:02.877Z,88.45
2016-11-27T03:48:24.688Z,88.20
2016-11-27T03:48:46.499Z,87.81
2016-11-27T03:49:08.242Z,87.65
2016-11-27T03:49:30.952Z,87.75
2016-11-27T03:49:52.683Z,87.95
2016-11-27T03:50:14.412Z,88.12
2016-11-27T03:50:36.161Z,88.32
2016-11-27T03:50:58.887Z,88.53
2016-11-27T03:51:20.604Z,88.75
2016-11-27T03:52:08.989Z,88.80
2016-11-27T03:52:30.735Z,88.85
2016-11-27T03:52:52.457Z,89.04
2016-11-27T03:53:14.189Z,89.13
2016-11-27T03:53:35.911Z,89.32
2016-11-27T03:54:28.906Z,89.52
2016-11-27T03:54:50.650Z,89.59
2016-11-27T03:55:12.401Z,89.33
2016-11-27T03:55:34.160Z,89.11
2016-11-27T03:55:55.935Z,88.92
2016-11-27T03:56:17.802Z,88.91
2016-11-27T03:56:39.532Z,88.95
2016-11-27T03:57:01.329Z,88.95
2016-11-27T03:57:23.065Z,88.90
2016-11-27T03:57:44.786Z,88.83
2016-11-27T03:58:06.505Z,88.86
2016-11-27T03:58:28.267Z,88.95
2016-11-27T03:58:49.992Z,89.00
2016-11-27T03:59:11.786Z,89.12
2016-11-27T03:59:33.509Z,89.09
2016-11-27T03:59:55.251Z,89.01
2016-11-27T04:00:17.165Z,88.76
2016-11-27T04:00:38.942Z,88.41
2016-11-27T04:01:00.673Z,88.30
2016-11-27T04:01:22.392Z,88.39
2016-11-27T04:01:44.117Z,88.53
2016-11-27T04:02:05.875Z,88.66
2016-11-27T04:02:27.595Z,88.89
2016-11-27T04:02:49.377Z,89.10
2016-11-27T04:03:11.113Z,89.09
2016-11-27T04:03:32.840Z,89.10
2016-11-27T04:03:54.584Z,89.25
2016-11-27T04:04:16.293Z,89.22
2016-11-27T04:04:38.012Z,89.20
2016-11-27T04:04:59.739Z,89.09
2016-11-27T04:05:21.486Z,89.09
2016-11-27T04:05:43.301Z,88.82
2016-11-27T04:06:05.123Z,88.69
2016-11-27T04:06:26.909Z,88.74
2016-11-27T04:06:48.641Z,88.71
2016-11-27T04:07:10.366Z,88.88
2016-11-27T04:07:32.083Z,89.07
2016-11-27T04:07:54.815Z,89.00
2016-11-27T04:08:16.533Z,89.08
2016-11-27T04:08:38.272Z,88.98
2016-11-27T04:09:00.001Z,88.89
2016-11-27T04:09:26.550Z,88.74
2016-11-27T04:09:48.328Z,88.56
2016-11-27T04:10:15.823Z,88.50
2016-11-27T04:10:37.540Z,88.55
2016-11-27T04:10:59.280Z,88.42
2016-11-27T04:11:21.012Z,88.46
2016-11-27T04:11:42.739Z,88.46
2016-11-27T04:12:04.473Z,88.46
2016-11-27T04:12:26.191Z,88.50
2016-11-27T04:12:47.949Z,88.38
2016-11-27T04:13:09.710Z,88.24
2016-11-27T04:13:31.633Z,88.16
2016-11-27T04:13:54.353Z,88.30
2016-11-27T04:14:16.090Z,88.40
2016-11-27T04:14:37.833Z,88.50
2016-11-27T04:14:59.555Z,88.71
2016-11-27T04:15:21.282Z,88.80
2016-11-27T04:15:43.003Z,88.93
2016-11-27T04:16:04.724Z,88.91
2016-11-27T04:16:26.458Z,89.08
2016-11-27T04:16:48.189Z,89.15
2016-11-27T04:17:09.908Z,89.19
2016-11-27T04:17:31.633Z,89.18
2016-11-27T04:17:53.361Z,89.11
2016-11-27T04:18:15.092Z,89.17
2016-11-27T04:18:36.811Z,89.25
2016-11-27T04:18:59.536Z,89.42
2016-11-27T04:19:21.285Z,89.63
2016-11-27T04:19:43.011Z,89.67
2016-11-27T04:20:04.729Z,89.40
2016-11-27T04:20:26.451Z,89.15
2016-11-27T04:20:51.847Z,89.09
2016-11-27T04:21:13.588Z,88.99
2016-11-27T04:21:35.307Z,89.07
2016-11-27T04:21:57.026Z,88.97
2016-11-27T04:22:18.760Z,89.00
2016-11-27T04:22:40.536Z,89.04
2016-11-27T04:23:02.281Z,89.07
2016-11-27T04:23:24.022Z,88.79
2016-11-27T04:23:45.732Z,88.80
2016-11-27T04:24:07.467Z,88.88
2016-11-27T04:24:29.191Z,88.90
2016-11-27T04:24:50.922Z,89.01
2016-11-27T04:25:12.638Z,88.88
2016-11-27T04:25:39.133Z,88.75
2016-11-27T04:26:00.852Z,88.45
2016-11-27T04:26:22.567Z,88.24
2016-11-27T04:26:44.316Z,88.37
2016-11-27T04:27:06.048Z,88.45
2016-11-27T04:27:27.867Z,88.62
2016-11-27T04:27:49.651Z,88.73
2016-11-27T04:28:11.453Z,88.72
2016-11-27T04:28:33.167Z,88.71
2016-11-27T04:28:54.890Z,88.56
2016-11-27T04:29:16.619Z,88.48
2016-11-27T04:29:38.390Z,88.40
2016-11-27T04:30:00.259Z,88.32
2016-11-27T04:30:21.988Z,88.13
2016-11-27T04:30:43.862Z,88.12
2016-11-27T04:31:05.664Z,88.23
2016-11-27T04:31:27.407Z,88.20
2016-11-27T04:31:49.197Z,88.22
2016-11-27T04:32:10.941Z,88.41
2016-11-27T04:32:32.707Z,88.36
2016-11-27T04:32:54.415Z,88.47
2016-11-27T04:33:16.138Z,88.64
2016-11-27T04:33:37.858Z,88.61
2016-11-27T04:33:59.605Z,88.45
2016-11-27T04:34:21.333Z,88.40
2016-11-27T04:34:43.053Z,88.61
2016-11-27T04:35:05.776Z,88.74
2016-11-27T04:35:27.506Z,88.77
2016-11-27T04:35:49.371Z,88.74
2016-11-27T04:36:11.087Z,88.78
2016-11-27T04:36:32.814Z,88.96
2016-11-27T04:36:54.542Z,88.89
2016-11-27T04:37:16.259Z,89.03
2016-11-27T04:37:38.014Z,89.35
2016-11-27T04:37:59.780Z,89.47
2016-11-27T04:38:21.494Z,89.66
2016-11-27T04:38:47.993Z,89.79
2016-11-27T04:39:09.809Z,89.88
2016-11-27T04:40:00.057Z,89.65
2016-11-27T04:40:21.880Z,89.43
2016-11-27T04:40:43.608Z,89.09
2016-11-27T04:41:05.378Z,88.97
2016-11-27T04:41:27.173Z,88.94
2016-11-27T04:41:49.009Z,88.89
2016-11-27T04:42:10.807Z,88.84
2016-11-27T04:42:37.318Z,88.75
2016-11-27T04:43:00.081Z,88.55
2016-11-27T04:43:21.813Z,88.36
2016-11-27T04:43:48.312Z,88.39
2016-11-27T04:44:10.031Z,88.19
2016-11-27T04:44:31.757Z,87.85
2016-11-27T04:44:53.498Z,88.25
2016-11-27T04:45:15.224Z,88.55
2016-11-27T04:45:37.029Z,89.13
2016-11-27T04:45:58.776Z,89.11
2016-11-27T04:46:20.592Z,88.90
2016-11-27T04:46:42.339Z,88.87
2016-11-27T04:47:06.820Z,88.74
2016-11-27T04:47:28.684Z,88.74
2016-11-27T04:47:51.417Z,88.66
2016-11-27T04:48:13.128Z,88.59
2016-11-27T04:48:34.863Z,88.22
2016-11-27T04:48:56.606Z,88.18
2016-11-27T04:49:18.316Z,88.08
2016-11-27T04:49:41.037Z,87.96
2016-11-27T04:50:02.763Z,88.24
2016-11-27T04:50:27.236Z,88.39
2016-11-27T04:51:17.694Z,88.67
2016-11-27T04:51:39.470Z,88.72
2016-11-27T04:52:01.317Z,88.48
2016-11-27T04:52:23.039Z,88.56
2016-11-27T04:52:44.758Z,88.63
2016-11-27T04:53:06.479Z,88.73
2016-11-27T04:53:28.215Z,88.67
2016-11-27T04:53:49.947Z,88.82
2016-11-27T04:54:11.668Z,88.73
2016-11-27T04:54:33.386Z,88.61
2016-11-27T04:54:55.111Z,88.54
2016-11-27T04:55:16.830Z,88.56
2016-11-27T04:55:38.557Z,88.60
2016-11-27T04:56:00.351Z,88.50
2016-11-27T04:56:22.087Z,88.60
2016-11-27T04:56:44.803Z,88.46
2016-11-27T04:57:06.544Z,88.57
2016-11-27T04:57:28.269Z,88.71
2016-11-27T04:57:50.005Z,88.85
2016-11-27T04:58:16.504Z,88.89
2016-11-27T04:58:39.223Z,88.92
2016-11-27T04:59:01.957Z,88.92
2016-11-27T04:59:24.680Z,88.96
2016-11-27T04:59:46.542Z,88.79
2016-11-27T05:00:08.285Z,88.77